Time;durP1;ratioP1;P1;durP2;ratioP2;P2;SDS_P1;SDS_P2;PMS_P1;PMS_P2;Temp;Humidity;BMP_temperature;BMP_pressure;BME280_temperature;BME280_humidity;BME280_pressure;Samples;Min_cycle;Max_cycle;Signal;HPM_P1;HPM_P2
2021/05/19 00:01:35;;;;;;;0.30;0.30;;;;;;;7.28;89.71;101561.44;4985970;28;20149;-74
2021/05/19 00:04:01;;;;;;;0.20;0.20;;;;;;;7.19;89.92;101545.56;4999862;28;20038;-74
2021/05/19 00:06:26;;;;;;;0.20;0.20;;;;;;;7.15;89.31;101536.25;4989598;28;20041;-73
2021/05/19 00:08:52;;;;;;;0.30;0.30;;;;;;;7.26;89.82;101562.44;4987637;28;20488;-74
2021/05/19 00:11:18;;;;;;;0.30;0.30;;;;;;;7.18;89.81;101551.63;4985329;28;20045;-74
2021/05/19 00:13:44;;;;;;;0.40;0.30;;;;;;;7.13;89.25;101549.28;4970761;28;20065;-74
2021/05/19 00:16:10;;;;;;;0.22;0.22;;;;;;;7.22;89.53;101563.53;5000610;28;20034;-74
2021/05/19 00:18:37;;;;;;;0.20;0.20;;;;;;;7.01;89.11;101534.41;4986382;28;20042;-74
2021/05/19 00:21:04;;;;;;;0.20;0.20;;;;;;;7.07;89.68;101538.44;4986744;28;20034;-74
2021/05/19 00:23:30;;;;;;;0.30;0.30;;;;;;;7.08;89.91;101537.50;4969973;28;20046;-74
2021/05/19 00:25:56;;;;;;;0.20;0.20;;;;;;;7.06;89.54;101541.94;4988575;28;20038;-74
2021/05/19 00:28:22;;;;;;;0.30;0.30;;;;;;;7.19;90.67;101559.34;4970307;28;20049;-74
2021/05/19 00:30:51;;;;;;;0.20;0.20;;;;;;;7.18;90.30;101557.69;4988990;28;20124;-74
2021/05/19 00:33:17;;;;;;;0.30;0.30;;;;;;;7.22;90.38;101564.38;4986457;28;20385;-74
2021/05/19 00:35:42;;;;;;;0.30;0.30;;;;;;;7.19;89.70;101554.19;4987010;28;20054;-74
2021/05/19 00:38:08;;;;;;;0.28;0.28;;;;;;;7.16;89.30;101554.31;4986757;28;20100;-74
2021/05/19 00:40:34;;;;;;;0.25;0.25;;;;;;;7.06;89.37;101547.94;4985806;28;20046;-74
2021/05/19 00:42:59;;;;;;;0.30;0.30;;;;;;;7.12;90.15;101559.75;4997622;28;20049;-74
2021/05/19 00:45:26;;;;;;;0.20;0.20;;;;;;;6.99;90.06;101541.41;4992430;28;20092;-74
2021/05/19 00:47:52;;;;;;;0.20;0.20;;;;;;;6.89;89.64;101535.03;4991733;28;20038;-75
2021/05/19 00:50:22;;;;;;;0.20;0.20;;;;;;;7.05;90.26;101559.22;4967781;28;20439;-74
2021/05/19 00:52:49;;;;;;;0.20;0.20;;;;;;;6.94;90.25;101539.03;4996594;28;20041;-74
2021/05/19 00:55:16;;;;;;;0.30;0.30;;;;;;;7.03;90.46;101555.88;4986257;28;20484;-74
2021/05/19 00:57:43;;;;;;;0.25;0.25;;;;;;;6.99;90.30;101556.94;4985708;28;20073;-74
2021/05/19 01:00:14;;;;;;;0.25;0.25;;;;;;;6.84;90.32;101527.50;4983963;28;20048;-74
2021/05/19 01:03:03;;;;;;;0.30;0.30;;;;;;;6.76;89.81;101521.88;4986838;28;20096;-75
2021/05/19 01:11:04;;;;;;;;;;;;;;;6.82;90.00;101552.63;4985584;28;20412;-75
2021/05/19 01:13:29;;;;;;;0.30;0.30;;;;;;;6.81;90.08;101539.75;4986058;28;20387;-74
2021/05/19 01:15:55;;;;;;;0.20;0.20;;;;;;;6.68;90.87;101528.34;4990522;28;20061;-75
2021/05/19 01:18:21;;;;;;;0.30;0.30;;;;;;;6.69;90.52;101522.25;4987053;28;20085;-74
2021/05/19 01:20:47;;;;;;;0.22;0.22;;;;;;;6.69;91.26;101533.47;4984749;28;20523;-74
2021/05/19 01:23:13;;;;;;;0.22;0.22;;;;;;;6.71;90.59;101531.63;4950069;28;20034;-74
2021/05/19 01:25:38;;;;;;;0.30;0.30;;;;;;;6.71;90.30;101525.59;4985854;28;20038;-74
2021/05/19 01:28:05;;;;;;;0.20;0.20;;;;;;;6.75;90.59;101543.50;4985305;28;20045;-74
2021/05/19 01:30:34;;;;;;;0.30;0.30;;;;;;;6.72;90.12;101530.72;4985954;28;20026;-74
2021/05/19 01:32:59;;;;;;;0.30;0.30;;;;;;;6.66;89.84;101525.84;4970966;28;20052;-75
2021/05/19 01:35:25;;;;;;;0.20;0.20;;;;;;;6.70;90.58;101529.13;4969946;28;20493;-75
2021/05/19 01:37:51;;;;;;;0.30;0.30;;;;;;;6.68;90.23;101531.78;4985384;28;20050;-75
2021/05/19 01:40:20;;;;;;;0.20;0.20;;;;;;;6.65;90.56;101525.00;4966811;28;20034;-75
2021/05/19 01:42:47;;;;;;;0.30;0.30;;;;;;;6.49;89.93;101503.41;5000501;28;20069;-74
2021/05/19 01:45:25;;;;;;;0.30;0.30;;;;;;;6.56;89.76;101517.69;4985133;28;20046;-75
2021/05/19 01:47:53;;;;;;;0.20;0.20;;;;;;;6.55;89.10;101521.19;4985363;28;20068;-75
2021/05/19 01:50:27;;;;;;;0.20;0.20;;;;;;;6.53;90.11;101523.03;4982231;28;20035;-75
2021/05/19 01:52:54;;;;;;;;;;;;;;;6.33;89.84;101489.56;5008546;28;20061;-74
2021/05/19 01:55:21;;;;;;;0.30;0.30;;;;;;;6.39;89.83;101512.53;4985638;28;19917;-75
2021/05/19 01:57:48;;;;;;;0.25;0.25;;;;;;;6.42;89.91;101522.72;4983560;28;20494;-74
2021/05/19 02:00:18;;;;;;;0.40;0.30;;;;;;;6.33;90.25;101510.25;4984845;28;20551;-75
2021/05/19 02:02:57;;;;;;;0.30;0.30;;;;;;;6.38;90.45;101522.94;4991389;28;20035;-75
2021/05/19 02:05:26;;;;;;;0.30;0.30;;;;;;;6.32;90.38;101509.41;4990794;28;20038;-75
2021/05/19 02:07:52;;;;;;;0.30;0.30;;;;;;;6.29;90.11;101500.97;5013988;28;20495;-73
2021/05/19 02:10:21;;;;;;;0.20;0.20;;;;;;;6.28;90.58;101502.72;4992115;28;20041;-74
2021/05/19 02:12:47;;;;;;;0.20;0.20;;;;;;;6.28;90.21;101504.44;4984980;28;20042;-74
2021/05/19 02:15:16;;;;;;;0.35;0.35;;;;;;;6.43;90.79;101533.91;4999004;28;20026;-74
2021/05/19 02:17:47;;;;;;;0.20;0.20;;;;;;;6.38;90.50;101518.59;4984413;28;20388;-74
2021/05/19 02:20:16;;;;;;;0.30;0.30;;;;;;;6.44;91.51;101538.16;4980459;28;20042;-74
2021/05/19 02:22:43;;;;;;;0.30;0.30;;;;;;;6.17;91.73;101476.53;4983611;28;20054;-74
2021/05/19 02:25:10;;;;;;;0.40;0.35;;;;;;;6.46;91.43;101516.47;4984708;28;20402;-74
2021/05/19 02:27:36;;;;;;;0.20;0.20;;;;;;;6.50;90.75;101517.19;4984647;28;20185;-74
2021/05/19 02:30:09;;;;;;;0.20;0.20;;;;;;;6.50;90.96;101510.25;4979884;28;20045;-74
2021/05/19 02:32:38;;;;;;;0.20;0.20;;;;;;;6.53;91.13;101504.06;4980488;28;20070;-74
2021/05/19 02:35:05;;;;;;;0.30;0.30;;;;;;;6.51;91.14;101504.16;4987282;28;20030;-74
2021/05/19 02:37:31;;;;;;;0.25;0.25;;;;;;;6.65;91.23;101517.25;4966723;28;20133;-74
2021/05/19 02:39:58;;;;;;;0.20;0.20;;;;;;;6.69;90.87;101530.03;4957912;28;20545;-74
2021/05/19 02:42:23;;;;;;;0.30;0.30;;;;;;;6.71;90.45;101526.44;4985729;28;20066;-73
2021/05/19 02:44:50;;;;;;;0.30;0.30;;;;;;;6.72;90.99;101524.69;4968040;28;20506;-73
2021/05/19 02:47:16;;;;;;;0.30;0.30;;;;;;;6.84;91.09;101529.25;4982841;28;20038;-74
2021/05/19 02:49:41;;;;;;;0.20;0.20;;;;;;;6.85;91.10;101534.34;4982830;28;20045;-74
2021/05/19 02:52:07;;;;;;;0.30;0.30;;;;;;;6.90;91.10;101527.19;4984970;28;20923;-74
2021/05/19 02:54:34;;;;;;;0.30;0.30;;;;;;;6.92;90.55;101522.75;4998517;28;20093;-74
2021/05/19 02:56:59;;;;;;;0.30;0.30;;;;;;;6.92;90.81;101521.91;5000045;28;20446;-73
2021/05/19 02:59:25;;;;;;;0.20;0.20;;;;;;;6.86;90.33;101511.88;4987366;28;20081;-74
2021/05/19 03:01:51;;;;;;;0.30;0.30;;;;;;;6.92;90.56;101522.75;4964303;28;20137;-74
2021/05/19 03:04:16;;;;;;;0.30;0.30;;;;;;;6.95;90.94;101514.81;4983303;28;20034;-74
2021/05/19 03:06:42;;;;;;;0.30;0.30;;;;;;;7.01;90.84;101526.66;4965234;28;20045;-74
2021/05/19 03:09:08;;;;;;;0.20;0.20;;;;;;;6.93;90.82;101501.13;4985858;28;20584;-74
2021/05/19 03:11:34;;;;;;;0.20;0.20;;;;;;;6.86;90.12;101497.19;4980899;28;20556;-74
2021/05/19 03:13:59;;;;;;;0.30;0.30;;;;;;;6.96;90.98;101508.72;4983958;28;20048;-74
2021/05/19 03:16:28;;;;;;;0.25;0.25;;;;;;;7.00;90.75;101522.34;4983910;28;20421;-74
2021/05/19 03:18:54;;;;;;;0.43;0.30;;;;;;;7.06;90.95;101529.81;4980207;28;20069;-74
2021/05/19 03:21:21;;;;;;;0.30;0.30;;;;;;;6.86;90.82;101491.19;4981411;28;20151;-74
2021/05/19 03:23:46;;;;;;;0.20;0.20;;;;;;;7.05;91.08;101517.78;4983667;28;20042;-74
2021/05/19 03:26:12;;;;;;;0.30;0.30;;;;;;;7.01;90.54;101518.03;4964090;28;20100;-74
2021/05/19 03:28:38;;;;;;;0.30;0.30;;;;;;;6.99;90.91;101518.09;4967719;28;20030;-74
2021/05/19 03:31:04;;;;;;;0.30;0.20;;;;;;;6.80;90.86;101492.31;4996913;28;20081;-74
2021/05/19 03:33:30;;;;;;;0.22;0.20;;;;;;;7.01;90.51;101529.22;4981366;28;20050;-74
2021/05/19 03:35:56;;;;;;;0.20;0.20;;;;;;;6.93;90.09;101516.66;4998273;28;20085;-74
2021/05/19 03:38:22;;;;;;;0.20;0.20;;;;;;;6.74;90.87;101479.69;4982511;28;20039;-74
2021/05/19 03:40:47;;;;;;;0.35;0.35;;;;;;;6.94;90.69;101499.38;4983752;28;20343;-73
2021/05/19 03:43:13;;;;;;;0.20;0.20;;;;;;;6.91;90.87;101499.53;4982961;28;20053;-74
2021/05/19 03:45:39;;;;;;;0.20;0.20;;;;;;;6.90;90.99;101490.94;4965280;28;20045;-74
2021/05/19 03:48:05;;;;;;;0.40;0.20;;;;;;;7.02;90.93;101507.59;4991385;28;20046;-74
2021/05/19 03:50:33;;;;;;;0.30;0.30;;;;;;;7.15;91.12;101524.16;4984048;28;20084;-74
2021/05/19 03:53:00;;;;;;;0.30;0.30;;;;;;;6.96;91.10;101500.97;4984746;28;20125;-74
2021/05/19 03:55:27;;;;;;;0.30;0.30;;;;;;;7.19;90.50;101520.50;4988161;28;20030;-74
2021/05/19 03:57:52;;;;;;;0.22;0.22;;;;;;;7.21;91.41;101528.19;4984049;28;20042;-74
2021/05/19 04:00:22;;;;;;;0.30;0.30;;;;;;;7.04;90.70;101491.97;4984144;28;20237;-73
2021/05/19 04:02:53;;;;;;;0.30;0.30;;;;;;;7.25;91.14;101524.50;4983048;28;20062;-74
2021/05/19 04:05:26;;;;;;;0.22;0.22;;;;;;;7.16;90.14;101512.88;4989755;28;20215;-74
2021/05/19 04:07:53;;;;;;;0.40;0.40;;;;;;;7.15;90.17;101512.94;4974800;28;20051;-74
2021/05/19 04:10:21;;;;;;;0.30;0.30;;;;;;;7.01;90.64;101489.56;4962459;28;20057;-74
2021/05/19 04:12:48;;;;;;;0.30;0.30;;;;;;;7.28;90.55;101535.53;4970137;28;20392;-74
2021/05/19 04:15:15;;;;;;;0.20;0.20;;;;;;;7.19;90.46;101515.31;4988532;28;20034;-74
2021/05/19 04:17:41;;;;;;;0.20;0.20;;;;;;;7.23;90.66;101521.16;4982218;28;20061;-73
2021/05/19 04:20:07;;;;;;;0.20;0.20;;;;;;;7.09;91.00;101510.69;4981759;28;20050;-74
2021/05/19 04:22:32;;;;;;;0.40;0.40;;;;;;;7.22;91.25;101527.28;4980556;28;20043;-74
2021/05/19 04:24:58;;;;;;;0.30;0.30;;;;;;;7.16;90.80;101528.41;4967692;28;20042;-74
2021/05/19 04:27:24;;;;;;;0.20;0.20;;;;;;;6.94;90.65;101502.78;4982210;28;20093;-74
2021/05/19 04:29:49;;;;;;;0.30;0.22;;;;;;;7.07;91.07;101512.53;4983249;28;20410;-74
2021/05/19 04:32:15;;;;;;;0.20;0.20;;;;;;;7.15;91.21;101536.25;4982667;28;20081;-74
2021/05/19 04:34:40;;;;;;;0.20;0.20;;;;;;;6.51;90.75;101428.28;4986798;28;20073;-72
2021/05/19 04:37:06;;;;;;;0.30;0.30;;;;;;;7.05;90.89;101512.63;4986130;28;20073;-72
2021/05/19 04:39:32;;;;;;;0.30;0.30;;;;;;;7.23;90.85;101540.13;4993649;28;20038;-72
2021/05/19 04:41:58;;;;;;;0.25;0.25;;;;;;;6.93;90.83;101489.94;4986980;28;20583;-70
2021/05/19 04:44:24;;;;;;;0.40;0.40;;;;;;;7.32;90.84;101543.16;5002031;28;20428;-72
2021/05/19 04:46:49;;;;;;;0.57;0.30;;;;;;;7.37;90.74;101542.00;4986000;28;20050;-72
2021/05/19 04:49:15;;;;;;;0.22;0.22;;;;;;;7.33;91.00;101521.50;4994623;28;20089;-72
2021/05/19 04:51:41;;;;;;;0.30;0.30;;;;;;;7.33;90.78;101526.69;4985914;28;20042;-72
2021/05/19 04:54:07;;;;;;;0.90;0.20;;;;;;;7.45;90.46;101539.00;4986226;28;20035;-72
2021/05/19 04:56:33;;;;;;;0.30;0.30;;;;;;;7.42;90.75;101529.63;4985750;28;20042;-72
2021/05/19 04:58:59;;;;;;;0.50;0.30;;;;;;;7.51;90.36;101542.09;4989786;28;20039;-72
2021/05/19 05:01:24;;;;;;;0.28;0.28;;;;;;;7.64;90.71;101551.81;4985609;28;20409;-72
2021/05/19 05:03:50;;;;;;;0.30;0.30;;;;;;;7.46;90.55;101510.41;4970182;28;20046;-72
2021/05/19 05:06:16;;;;;;;0.20;0.20;;;;;;;7.80;89.60;101557.84;4993389;28;20089;-72
2021/05/19 05:08:41;;;;;;;0.32;0.32;;;;;;;7.85;90.43;101558.41;4994832;28;20564;-72
2021/05/19 05:11:07;;;;;;;0.20;0.20;;;;;;;7.91;90.39;101558.09;4984875;28;20042;-72
2021/05/19 05:13:33;;;;;;;0.30;0.30;;;;;;;7.89;90.29;101547.78;4985215;28;20530;-72
2021/05/19 05:15:58;;;;;;;0.30;0.30;;;;;;;7.96;89.96;101563.03;4986964;28;20064;-72
2021/05/19 05:18:24;;;;;;;0.30;0.30;;;;;;;7.87;90.18;101541.00;4985432;28;20093;-72
2021/05/19 05:20:49;;;;;;;0.20;0.20;;;;;;;8.03;89.81;101561.75;4999487;28;20042;-72
2021/05/19 05:23:15;;;;;;;0.25;0.25;;;;;;;8.08;89.80;101557.16;4980758;28;20425;-72
2021/05/19 05:25:40;;;;;;;0.20;0.20;;;;;;;8.00;89.29;101554.16;4987224;28;20563;-72
2021/05/19 05:28:06;;;;;;;0.30;0.30;;;;;;;8.05;89.05;101562.50;4986268;28;20033;-72
2021/05/19 05:30:31;;;;;;;0.40;0.40;;;;;;;7.98;89.52;101553.41;4969625;28;20493;-72
2021/05/19 05:32:57;;;;;;;0.30;0.30;;;;;;;8.07;89.85;101564.09;4989093;28;20045;-72
2021/05/19 05:35:23;;;;;;;0.30;0.30;;;;;;;7.92;90.35;101536.44;4991652;28;20077;-72
2021/05/19 05:37:48;;;;;;;0.25;0.25;;;;;;;8.00;90.06;101543.78;4997748;28;20054;-72
2021/05/19 05:40:14;;;;;;;0.30;0.30;;;;;;;8.09;89.08;101554.50;4986337;28;20038;-72
2021/05/19 05:42:39;;;;;;;0.30;0.30;;;;;;;8.09;89.70;101538.91;4985676;28;20046;-71
2021/05/19 05:45:06;;;;;;;0.20;0.20;;;;;;;8.27;89.20;101555.22;5000732;28;20523;-72
2021/05/19 05:47:33;;;;;;;0.35;0.28;;;;;;;8.34;89.45;101551.38;4968228;28;20038;-72
2021/05/19 05:50:02;;;;;;;0.35;0.30;;;;;;;8.31;88.37;101535.94;4983037;28;20563;-72
2021/05/19 05:52:27;;;;;;;0.30;0.30;;;;;;;8.46;88.44;101557.63;4983447;28;20035;-72
2021/05/19 05:54:53;;;;;;;0.20;0.20;;;;;;;8.52;88.87;101561.63;4969911;28;20049;-72
2021/05/19 05:57:18;;;;;;;0.30;0.30;;;;;;;8.53;88.18;101558.94;4997302;28;20052;-73
2021/05/19 05:59:44;;;;;;;0.40;0.40;;;;;;;8.37;87.81;101535.63;4993573;28;20061;-72
2021/05/19 06:02:10;;;;;;;0.30;0.30;;;;;;;8.48;88.87;101551.44;4982592;28;20031;-72
2021/05/19 06:04:35;;;;;;;0.30;0.30;;;;;;;8.56;88.05;101563.94;4995429;28;20053;-72
2021/05/19 06:07:01;;;;;;;0.30;0.30;;;;;;;8.37;88.82;101529.59;4994256;28;20432;-72
2021/05/19 06:09:26;;;;;;;0.30;0.30;;;;;;;8.40;89.38;101542.38;4968719;28;20030;-72
2021/05/19 06:11:52;;;;;;;0.30;0.30;;;;;;;8.60;89.33;101575.81;4997232;28;20146;-71
2021/05/19 06:14:18;;;;;;;0.20;0.20;;;;;;;8.66;89.10;101579.84;4982343;28;20038;-72
2021/05/19 06:16:45;;;;;;;0.38;0.38;;;;;;;8.60;88.85;101577.59;4986023;28;20416;-72
2021/05/19 06:19:10;;;;;;;0.28;0.28;;;;;;;8.66;89.54;101587.63;4985272;28;20088;-72
2021/05/19 06:21:36;;;;;;;0.35;0.35;;;;;;;8.53;89.66;101558.94;4984847;28;20066;-72
2021/05/19 06:24:02;;;;;;;0.57;0.47;;;;;;;8.58;88.80;101558.66;4984825;28;20038;-72
2021/05/19 06:26:28;;;;;;;0.30;0.30;;;;;;;8.77;89.58;101588.66;4984833;28;20026;-72
2021/05/19 06:28:53;;;;;;;0.30;0.30;;;;;;;8.80;89.06;101574.69;4983360;28;20607;-72
2021/05/19 06:31:19;;;;;;;0.30;0.30;;;;;;;8.88;88.62;101579.44;4984948;28;20046;-72
2021/05/19 06:33:44;;;;;;;0.75;0.30;;;;;;;8.88;89.04;101576.84;4982164;28;20042;-72
2021/05/19 06:36:10;;;;;;;0.30;0.30;;;;;;;8.93;89.53;101564.41;5000924;28;20130;-72
2021/05/19 06:38:35;;;;;;;0.30;0.30;;;;;;;9.08;89.09;101576.47;4995459;28;20038;-72
2021/05/19 06:41:01;;;;;;;0.40;0.40;;;;;;;9.22;88.00;101586.91;4959844;28;20042;-72
2021/05/19 06:43:26;;;;;;;0.30;0.30;;;;;;;9.22;87.80;101573.91;4983752;28;20070;-72
2021/05/19 06:45:52;;;;;;;0.20;0.20;;;;;;;9.25;87.85;101578.91;4984746;28;20080;-72
2021/05/19 06:48:17;;;;;;;0.30;0.30;;;;;;;9.13;87.85;101563.22;4999418;28;20046;-71
2021/05/19 06:50:45;;;;;;;0.25;0.25;;;;;;;9.39;88.33;101586.72;4997684;28;20058;-71
2021/05/19 06:53:11;;;;;;;0.30;0.30;;;;;;;9.48;87.83;101587.06;4986701;28;20046;-72
2021/05/19 06:55:36;;;;;;;0.28;0.28;;;;;;;9.49;87.55;101583.53;4982668;28;20053;-72
2021/05/19 06:58:02;;;;;;;0.30;0.30;;;;;;;9.56;87.39;101585.69;4981332;28;20468;-72
2021/05/19 07:00:28;;;;;;;0.30;0.30;;;;;;;9.56;87.30;101590.06;4979681;28;20133;-72
2021/05/19 07:02:53;;;;;;;0.20;0.20;;;;;;;9.51;87.25;101576.47;4977382;28;20595;-72
2021/05/19 07:05:22;;;;;;;0.30;0.30;;;;;;;9.65;86.77;101602.47;4983034;28;20038;-71
2021/05/19 07:07:48;;;;;;;0.20;0.20;;;;;;;9.71;86.91;101602.13;4989168;28;20038;-71
2021/05/19 07:10:14;;;;;;;0.30;0.30;;;;;;;9.53;86.89;101574.66;4985008;28;20037;-71
2021/05/19 07:12:40;;;;;;;0.35;0.35;;;;;;;9.54;87.24;101576.31;4983430;28;20046;-71
2021/05/19 07:15:11;;;;;;;0.30;0.30;;;;;;;9.61;87.82;101586.22;4983753;28;20035;-71
2021/05/19 07:17:38;;;;;;;0.20;0.20;;;;;;;9.57;86.44;101569.16;4957972;28;20485;-71
2021/05/19 07:20:08;;;;;;;0.40;0.40;;;;;;;9.72;87.15;101590.78;4966831;28;20084;-71
2021/05/19 07:22:34;;;;;;;0.20;0.20;;;;;;;9.71;86.90;101583.91;4969650;28;20484;-71
2021/05/19 07:25:00;;;;;;;0.32;0.30;;;;;;;9.81;86.31;101597.16;4977952;28;20088;-71
2021/05/19 07:27:26;;;;;;;0.40;0.40;;;;;;;9.62;86.81;101574.91;4976288;28;20497;-71
2021/05/19 07:29:52;;;;;;;0.20;0.20;;;;;;;9.80;86.98;101579.88;4990149;28;20042;-71
2021/05/19 07:32:17;;;;;;;0.32;0.32;;;;;;;9.91;86.29;101604.31;4982402;28;20385;-71
2021/05/19 07:34:43;;;;;;;0.30;0.30;;;;;;;9.97;87.21;101606.53;4949474;28;20855;-71
2021/05/19 07:37:08;;;;;;;0.20;0.20;;;;;;;9.99;86.64;101599.44;4982675;28;20042;-71
2021/05/19 07:39:35;;;;;;;0.28;0.28;;;;;;;9.99;86.54;101585.59;4963516;28;20504;-71
2021/05/19 07:42:00;;;;;;;0.28;0.28;;;;;;;10.13;86.05;101605.56;4982803;28;20088;-71
2021/05/19 07:44:26;;;;;;;0.30;0.30;;;;;;;10.07;86.76;101605.94;4965756;28;20042;-70
2021/05/19 07:46:52;;;;;;;0.30;0.30;;;;;;;10.12;87.63;101609.94;4979113;28;20042;-71
2021/05/19 07:49:17;;;;;;;0.28;0.28;;;;;;;10.05;86.80;101589.56;4969201;28;20440;-71
2021/05/19 07:51:43;;;;;;;0.30;0.30;;;;;;;10.17;86.82;101615.66;4961757;28;20644;-71
2021/05/19 07:54:13;;;;;;;0.45;0.45;;;;;;;10.23;85.85;101606.66;4961381;28;20050;-70
2021/05/19 07:56:51;;;;;;;0.65;0.40;;;;;;;10.33;85.99;101612.94;4955735;28;20428;-70
2021/05/19 07:59:18;;;;;;;0.40;0.40;;;;;;;10.58;86.99;101610.41;4969430;28;25522;-71
2021/05/19 08:02:03;;;;;;;0.57;0.30;;;;;;;10.81;85.73;101600.28;4961907;28;20037;-71
2021/05/19 08:04:37;;;;;;;0.30;0.30;;;;;;;10.95;83.31;101588.91;4959246;28;20315;-70
2021/05/19 08:07:04;;;;;;;0.30;0.30;;;;;;;11.35;85.15;101594.88;4971870;28;20121;-71
2021/05/19 08:09:32;;;;;;;0.30;0.30;;;;;;;11.46;83.94;101585.34;4974590;28;20046;-71
2021/05/19 08:11:59;;;;;;;0.52;0.30;;;;;;;11.43;80.50;101569.09;4965537;28;20060;-71
2021/05/19 08:14:32;;;;;;;0.20;0.20;;;;;;;11.60;83.11;101588.78;4996541;28;20038;-70
2021/05/19 08:16:58;;;;;;;0.25;0.25;;;;;;;11.72;82.47;101600.97;4977365;28;20034;-71
2021/05/19 08:19:24;;;;;;;0.20;0.20;;;;;;;11.71;83.27;101578.44;4978659;28;20040;-71
2021/05/19 08:21:49;;;;;;;0.20;0.20;;;;;;;11.95;82.88;101600.22;4962480;28;20042;-70
2021/05/19 08:24:15;;;;;;;0.30;0.30;;;;;;;11.98;80.92;101602.59;4981218;28;20034;-70
2021/05/19 08:26:41;;;;;;;0.20;0.20;;;;;;;11.89;80.72;101581.56;4966857;28;20531;-70
2021/05/19 08:29:07;;;;;;;0.30;0.30;;;;;;;11.82;79.66;101572.47;4982863;28;20043;-70
2021/05/19 08:31:35;;;;;;;0.30;0.30;;;;;;;11.96;80.30;101595.81;4960784;28;20444;-70
2021/05/19 08:34:01;;;;;;;0.35;0.35;;;;;;;12.12;79.86;101593.78;4998828;28;20053;-69
2021/05/19 08:36:27;;;;;;;0.20;0.20;;;;;;;11.95;79.15;101581.09;4960551;28;20054;-69
2021/05/19 08:38:53;;;;;;;0.20;0.20;;;;;;;12.08;80.25;101597.56;4984615;28;20053;-69
2021/05/19 08:41:20;;;;;;;0.30;0.30;;;;;;;12.05;78.81;101569.06;4981696;28;20157;-70
2021/05/19 08:43:46;;;;;;;0.25;0.25;;;;;;;12.30;78.28;101581.16;4948421;28;20064;-70
2021/05/19 08:46:12;;;;;;;0.30;0.30;;;;;;;12.30;76.05;101549.84;4961351;28;20133;-71
2021/05/19 08:48:39;;;;;;;0.30;0.30;;;;;;;12.42;75.36;101564.59;4967970;28;20044;-69
2021/05/19 08:51:05;;;;;;;0.20;0.20;;;;;;;12.46;74.89;101586.09;4985881;28;20492;-69
2021/05/19 08:53:32;;;;;;;0.30;0.30;;;;;;;12.43;76.48;101587.16;4958525;28;20026;-69
2021/05/19 08:55:58;;;;;;;0.20;0.20;;;;;;;12.34;77.12;101578.22;4976157;28;20896;-70
2021/05/19 08:58:24;;;;;;;0.20;0.20;;;;;;;12.54;75.67;101592.41;4962877;28;20061;-69
2021/05/19 09:00:49;;;;;;;0.20;0.20;;;;;;;12.75;75.24;101566.50;4983506;28;20608;-71
2021/05/19 09:03:16;;;;;;;0.30;0.30;;;;;;;13.01;76.04;101573.19;4964969;28;20042;-70
2021/05/19 09:05:50;;;;;;;0.30;0.30;;;;;;;13.12;74.40;101551.47;4980977;28;20081;-69
2021/05/19 09:08:20;;;;;;;0.17;0.17;;;;;;;13.23;72.27;101574.19;4961891;28;20034;-70
2021/05/19 09:11:00;;;;;;;0.22;0.22;;;;;;;13.40;72.74;101555.41;4980960;28;20165;-70
2021/05/19 09:13:32;;;;;;;0.20;0.20;;;;;;;13.66;72.97;101574.31;4967927;28;20052;-70
2021/05/19 09:15:57;;;;;;;0.28;0.28;;;;;;;13.52;71.44;101553.63;4982217;28;20448;-70
2021/05/19 09:18:23;;;;;;;0.20;0.20;;;;;;;13.51;73.38;101572.88;4932136;28;20040;-70
2021/05/19 09:20:51;;;;;;;0.30;0.30;;;;;;;13.45;70.51;101566.31;4980840;28;20073;-70
2021/05/19 09:23:19;;;;;;;0.20;0.20;;;;;;;13.40;70.85;101560.63;4963169;28;20034;-70
2021/05/19 09:26:02;;;;;;;0.20;0.20;;;;;;;13.47;70.53;101561.00;4988241;28;20061;-69
2021/05/19 09:28:27;;;;;;;0.20;0.20;;;;;;;13.38;70.87;101556.47;4993733;28;20047;-70
2021/05/19 09:30:53;;;;;;;0.20;0.20;;;;;;;13.07;73.61;101534.44;4968288;28;20046;-69
2021/05/19 09:33:25;;;;;;;0.20;0.20;;;;;;;12.94;73.11;101548.47;4983286;28;20480;-70
2021/05/19 09:36:29;;;;;;;0.20;0.20;;;;;;;12.78;72.38;101576.72;4964306;28;20437;-70
2021/05/19 09:38:55;;;;;;;0.30;0.20;;;;;;;12.44;73.87;101554.03;4971377;28;20124;-69
2021/05/19 09:41:31;;;;;;;0.25;0.20;;;;;;;12.40;75.40;101582.19;4959190;28;20108;-69
2021/05/19 09:43:59;;;;;;;0.20;0.20;;;;;;;12.09;76.62;101587.00;4984930;28;20038;-70
2021/05/19 09:46:34;;;;;;;0.30;0.30;;;;;;;11.95;78.14;101583.72;4958539;28;20034;-71
2021/05/19 09:49:21;;;;;;;0.45;0.28;;;;;;;11.55;80.49;101580.47;4965067;28;20073;-74
2021/05/19 09:51:49;;;;;;;0.30;0.30;;;;;;;11.25;83.21;101581.63;4987357;28;20038;-76
2021/05/19 09:54:39;;;;;;;0.30;0.30;;;;;;;10.98;84.57;101580.91;4956358;28;20523;-76
2021/05/19 09:57:05;;;;;;;0.30;0.30;;;;;;;10.98;86.23;101591.34;4980118;28;20019;-77
2021/05/19 09:59:32;;;;;;;0.30;0.30;;;;;;;10.87;84.78;101587.66;4979679;28;20045;-76
2021/05/19 10:02:00;;;;;;;0.20;0.20;;;;;;;10.84;85.53;101590.47;4967492;28;20411;-77
2021/05/19 10:05:11;;;;;;;0.30;0.30;;;;;;;10.66;86.77;101585.66;4972196;28;20034;-77
2021/05/19 10:07:17;;;;;;;0.20;0.20;;;;;;;10.75;86.54;101604.09;4966992;28;20081;-75
2021/05/19 10:09:46;;;;;;;0.20;0.20;;;;;;;10.61;85.78;101577.31;4974157;28;20755;-76
2021/05/19 10:12:13;;;;;;;0.10;0.10;;;;;;;10.74;83.81;101596.38;4967157;28;20041;-75
2021/05/19 10:14:40;;;;;;;0.20;0.20;;;;;;;10.65;85.86;101577.00;4976920;28;20038;-75
2021/05/19 10:17:09;;;;;;;0.20;0.20;;;;;;;10.85;85.61;101604.34;4962069;28;20556;-74
2021/05/19 10:19:39;;;;;;;0.93;0.20;;;;;;;10.96;84.31;101620.09;4977952;28;20046;-75
2021/05/19 10:22:11;;;;;;;0.35;0.22;;;;;;;10.95;82.13;101588.91;4978166;28;20077;-75
2021/05/19 10:27:47;;;;;;;0.20;0.20;;;;;;;11.57;79.87;101610.72;4960128;28;20146;-74
2021/05/19 10:30:36;;;;;;;0.20;0.20;;;;;;;12.23;80.38;101616.53;4984370;28;20500;-74
2021/05/19 10:33:03;;;;;;;0.20;0.20;;;;;;;12.29;76.01;101608.22;5009726;28;20062;-74
2021/05/19 10:35:32;;;;;;;0.30;0.30;;;;;;;12.28;71.46;101596.13;4972455;28;20042;-72
2021/05/19 10:38:23;;;;;;;0.20;0.20;;;;;;;12.47;73.05;101609.50;4979367;28;20152;-74
2021/05/19 10:41:02;;;;;;;0.20;0.20;;;;;;;12.39;73.23;101610.06;4959376;28;24702;-73
2021/05/19 10:43:46;;;;;;;0.10;0.10;;;;;;;12.36;74.33;101620.72;4982401;28;20057;-74
2021/05/19 10:46:13;;;;;;;0.20;0.20;;;;;;;12.16;74.94;101616.09;4980425;28;20043;-73
2021/05/19 10:48:39;;;;;;;0.10;0.10;;;;;;;12.03;72.40;101608.34;4954608;28;20096;-74
2021/05/19 10:51:29;;;;;;;0.20;0.20;;;;;;;12.02;74.90;101622.31;4983013;28;20524;-73
2021/05/19 11:00:11;;;;;;;0.15;0.15;;;;;;;11.67;76.69;101643.06;4982591;28;20070;-73
2021/05/19 11:03:02;;;;;;;0.20;0.20;;;;;;;11.62;77.06;101641.69;4962658;28;20038;-74
2021/05/19 11:05:32;;;;;;;0.20;0.20;;;;;;;11.49;75.57;101639.94;4981301;28;20276;-73
2021/05/19 11:08:07;;;;;;;0.20;0.20;;;;;;;11.35;79.61;101647.03;4964357;28;20412;-73
2021/05/19 11:10:50;;;;;;;0.10;0.10;;;;;;;11.25;77.89;101640.75;4980162;28;20858;-74
2021/05/19 11:13:21;;;;;;;0.20;0.20;;;;;;;10.93;78.36;101599.44;4956367;28;20476;-74
2021/05/19 11:18:19;;;;;;;0.20;0.20;;;;;;;11.14;77.74;101631.06;4967661;28;20043;-74
2021/05/19 11:20:46;;;;;;;0.20;0.20;;;;;;;11.14;79.78;101623.25;4979801;28;20042;-74
2021/05/19 11:23:13;;;;;;;0.20;0.20;;;;;;;10.96;80.25;101591.44;4948342;28;20554;-74
2021/05/19 11:25:40;;;;;;;0.20;0.20;;;;;;;11.08;82.80;101602.78;4985026;28;20038;-74
2021/05/19 11:28:06;;;;;;;0.20;0.20;;;;;;;11.25;82.03;101614.69;4974754;28;20050;-73
2021/05/19 11:30:32;;;;;;;0.20;0.20;;;;;;;11.20;78.24;101601.97;4962981;28;20048;-73
2021/05/19 11:33:03;;;;;;;0.20;0.20;;;;;;;11.42;78.35;101619.59;4981424;28;20908;-74
2021/05/19 11:35:28;;;;;;;0.20;0.20;;;;;;;11.52;81.39;101643.28;4965140;28;20026;-73
2021/05/19 11:37:58;;;;;;;0.20;0.20;;;;;;;11.46;78.72;101621.03;4965360;28;20165;-73
2021/05/19 11:40:45;;;;;;;0.13;0.13;;;;;;;11.40;79.59;101609.25;4948292;28;20673;-73
2021/05/19 11:43:15;;;;;;;0.15;0.15;;;;;;;11.48;81.10;101614.78;4986090;28;20034;-73
2021/05/19 11:45:46;;;;;;;0.20;0.20;;;;;;;11.72;80.34;101638.34;4963546;28;20044;-72
2021/05/19 11:48:18;;;;;;;0.30;0.30;;;;;;;11.69;79.42;101633.34;4983089;28;20073;-72
2021/05/19 11:50:44;;;;;;;0.20;0.20;;;;;;;11.74;78.43;101640.84;4966307;28;20062;-73
2021/05/19 11:53:10;;;;;;;0.20;0.20;;;;;;;11.69;78.23;101654.22;4987039;28;20137;-72